sensor_id;sensor_type;location;lat;lon;timestamp;temperature;humidity
19864;DHT22;10094;48.820;9.226;2022-12-18T00:03:15;-6.40;99.90
19864;DHT22;10094;48.820;9.226;2022-12-18T00:09:58;-6.40;99.90
19864;DHT22;10094;48.820;9.226;2022-12-18T00:16:43;-6.60;99.90
19864;DHT22;10094;48.820;9.226;2022-12-18T00:23:26;-6.60;99.90
19864;DHT22;10094;48.820;9.226;2022-12-18T00:30:10;-6.50;99.90
19864;DHT22;10094;48.820;9.226;2022-12-18T00:36:52;-6.60;99.90
19864;DHT22;10094;48.820;9.226;2022-12-18T00:43:37;-6.70;99.90
19864;DHT22;10094;48.820;9.226;2022-12-18T00:50:22;-6.60;99.90
19864;DHT22;10094;48.820;9.226;2022-12-18T00:57:05;-6.70;99.90
19864;DHT22;10094;48.820;9.226;2022-12-18T01:03:48;-6.50;99.90
19864;DHT22;10094;48.820;9.226;2022-12-18T01:10:31;-6.90;99.90
19864;DHT22;10094;48.820;9.226;2022-12-18T01:17:13;-6.90;99.90
19864;DHT22;10094;48.820;9.226;2022-12-18T01:23:57;-6.70;99.90
19864;DHT22;10094;48.820;9.226;2022-12-18T01:30:41;-6.70;99.90
19864;DHT22;10094;48.820;9.226;2022-12-18T01:37:24;-6.50;99.90
19864;DHT22;10094;48.820;9.226;2022-12-18T01:51:41;-6.90;99.90
19864;DHT22;10094;48.820;9.226;2022-12-18T01:58:43;-6.90;99.90
19864;DHT22;10094;48.820;9.226;2022-12-18T02:05:47;-7.20;99.90
19864;DHT22;10094;48.820;9.226;2022-12-18T02:12:48;-6.80;99.90
19864;DHT22;10094;48.820;9.226;2022-12-18T02:19:53;-7.10;99.90
19864;DHT22;10094;48.820;9.226;2022-12-18T02:26:53;-6.80;99.90
19864;DHT22;10094;48.820;9.226;2022-12-18T02:33:40;-6.80;99.90
19864;DHT22;10094;48.820;9.226;2022-12-18T02:40:26;-6.80;99.90
19864;DHT22;10094;48.820;9.226;2022-12-18T02:47:11;-5.60;99.90
19864;DHT22;10094;48.820;9.226;2022-12-18T02:54:09;-6.80;99.90
19864;DHT22;10094;48.820;9.226;2022-12-18T03:08:30;-6.50;99.90
19864;DHT22;10094;48.820;9.226;2022-12-18T03:15:17;-6.60;99.90
19864;DHT22;10094;48.820;9.226;2022-12-18T03:22:07;-6.40;99.90
19864;DHT22;10094;48.820;9.226;2022-12-18T03:29:09;-6.70;99.90
19864;DHT22;10094;48.820;9.226;2022-12-18T03:35:55;-6.50;99.90
19864;DHT22;10094;48.820;9.226;2022-12-18T03:42:56;-4.30;99.90
19864;DHT22;10094;48.820;9.226;2022-12-18T03:56:35;-6.30;99.90
19864;DHT22;10094;48.820;9.226;2022-12-18T04:03:21;-6.50;99.90
19864;DHT22;10094;48.820;9.226;2022-12-18T04:10:11;-6.80;99.90
19864;DHT22;10094;48.820;9.226;2022-12-18T04:16:55;-6.60;99.90
19864;DHT22;10094;48.820;9.226;2022-12-18T04:23:44;-6.70;99.90
19864;DHT22;10094;48.820;9.226;2022-12-18T04:30:28;-6.80;99.90
19864;DHT22;10094;48.820;9.226;2022-12-18T04:37:14;-6.50;99.90
19864;DHT22;10094;48.820;9.226;2022-12-18T04:43:57;-7.30;99.90
19864;DHT22;10094;48.820;9.226;2022-12-18T04:50:39;-7.30;99.90
19864;DHT22;10094;48.820;9.226;2022-12-18T04:57:22;-7.20;99.90
19864;DHT22;10094;48.820;9.226;2022-12-18T05:04:04;-7.50;99.90
19864;DHT22;10094;48.820;9.226;2022-12-18T05:10:47;-7.10;99.90
19864;DHT22;10094;48.820;9.226;2022-12-18T05:17:34;-7.60;99.90
19864;DHT22;10094;48.820;9.226;2022-12-18T05:24:16;-7.60;99.90
19864;DHT22;10094;48.820;9.226;2022-12-18T05:31:00;-7.60;99.90
19864;DHT22;10094;48.820;9.226;2022-12-18T05:37:43;-7.60;99.90
19864;DHT22;10094;48.820;9.226;2022-12-18T05:44:25;-7.50;99.90
19864;DHT22;10094;48.820;9.226;2022-12-18T05:51:13;-7.70;99.90
19864;DHT22;10094;48.820;9.226;2022-12-18T05:57:56;-7.70;99.90
19864;DHT22;10094;48.820;9.226;2022-12-18T06:04:39;-7.70;99.90
19864;DHT22;10094;48.820;9.226;2022-12-18T06:11:23;-7.70;99.90
19864;DHT22;10094;48.820;9.226;2022-12-18T06:18:06;-7.90;99.90
19864;DHT22;10094;48.820;9.226;2022-12-18T06:24:49;-7.80;99.90
19864;DHT22;10094;48.820;9.226;2022-12-18T06:31:31;-8.20;99.90
19864;DHT22;10094;48.820;9.226;2022-12-18T06:38:14;-7.90;99.90
19864;DHT22;10094;48.820;9.226;2022-12-18T06:45:23;-7.90;99.90
19864;DHT22;10094;48.820;9.226;2022-12-18T06:52:11;-8.10;99.90
19864;DHT22;10094;48.820;9.226;2022-12-18T06:58:57;-8.20;99.90
19864;DHT22;10094;48.820;9.226;2022-12-18T07:05:40;-8.00;99.90
19864;DHT22;10094;48.820;9.226;2022-12-18T07:12:23;-7.70;99.90
19864;DHT22;10094;48.820;9.226;2022-12-18T07:19:23;-8.10;99.90
19864;DHT22;10094;48.820;9.226;2022-12-18T07:26:08;-8.00;99.90
19864;DHT22;10094;48.820;9.226;2022-12-18T07:32:51;-7.80;99.90
19864;DHT22;10094;48.820;9.226;2022-12-18T07:39:33;-8.20;99.90
19864;DHT22;10094;48.820;9.226;2022-12-18T07:46:16;-7.90;99.90
19864;DHT22;10094;48.820;9.226;2022-12-18T07:52:58;-7.80;99.90
19864;DHT22;10094;48.820;9.226;2022-12-18T07:59:45;-7.70;99.90
19864;DHT22;10094;48.820;9.226;2022-12-18T08:06:28;-7.40;99.90
19864;DHT22;10094;48.820;9.226;2022-12-18T08:13:10;-7.40;99.90
19864;DHT22;10094;48.820;9.226;2022-12-18T08:19:54;-6.10;99.90
19864;DHT22;10094;48.820;9.226;2022-12-18T08:26:37;-6.00;99.90
19864;DHT22;10094;48.820;9.226;2022-12-18T08:33:19;-5.80;99.90
19864;DHT22;10094;48.820;9.226;2022-12-18T08:40:11;-5.60;99.90
19864;DHT22;10094;48.820;9.226;2022-12-18T08:47:01;-4.90;99.90
19864;DHT22;10094;48.820;9.226;2022-12-18T08:53:48;-4.30;99.90
19864;DHT22;10094;48.820;9.226;2022-12-18T09:00:33;-3.00;99.90
19864;DHT22;10094;48.820;9.226;2022-12-18T09:07:15;-0.70;97.50
19864;DHT22;10094;48.820;9.226;2022-12-18T09:13:59;-0.40;97.80
19864;DHT22;10094;48.820;9.226;2022-12-18T09:20:42;0.00;94.90
19864;DHT22;10094;48.820;9.226;2022-12-18T09:27:25;0.40;93.20
19864;DHT22;10094;48.820;9.226;2022-12-18T09:34:07;0.60;93.70
19864;DHT22;10094;48.820;9.226;2022-12-18T09:40:56;0.80;92.00
19864;DHT22;10094;48.820;9.226;2022-12-18T09:47:42;1.30;94.50
19864;DHT22;10094;48.820;9.226;2022-12-18T09:54:33;1.20;95.20
19864;DHT22;10094;48.820;9.226;2022-12-18T10:01:21;0.90;95.50
19864;DHT22;10094;48.820;9.226;2022-12-18T10:08:18;0.50;98.20
19864;DHT22;10094;48.820;9.226;2022-12-18T10:28:39;1.50;96.50
19864;DHT22;10094;48.820;9.226;2022-12-18T10:35:25;0.40;99.30
19864;DHT22;10094;48.820;9.226;2022-12-18T10:42:17;0.30;99.90
19864;DHT22;10094;48.820;9.226;2022-12-18T10:49:01;-0.50;99.90
19864;DHT22;10094;48.820;9.226;2022-12-18T10:55:46;-1.40;99.90
19864;DHT22;10094;48.820;9.226;2022-12-18T11:02:35;-1.60;99.90
19864;DHT22;10094;48.820;9.226;2022-12-18T11:09:23;-2.20;99.90
19864;DHT22;10094;48.820;9.226;2022-12-18T11:16:06;-1.40;99.90
19864;DHT22;10094;48.820;9.226;2022-12-18T11:22:57;-1.40;99.90
19864;DHT22;10094;48.820;9.226;2022-12-18T11:29:40;-1.60;99.90
19864;DHT22;10094;48.820;9.226;2022-12-18T11:36:31;-1.60;99.90
19864;DHT22;10094;48.820;9.226;2022-12-18T11:43:19;-1.40;99.90
19864;DHT22;10094;48.820;9.226;2022-12-18T11:50:15;-1.30;99.90
19864;DHT22;10094;48.820;9.226;2022-12-18T11:57:07;-1.50;99.90
19864;DHT22;10094;48.820;9.226;2022-12-18T12:11:11;-0.50;99.90
19864;DHT22;10094;48.820;9.226;2022-12-18T12:39:31;-0.10;99.90
19864;DHT22;10094;48.820;9.226;2022-12-18T12:46:20;0.20;99.90
19864;DHT22;10094;48.820;9.226;2022-12-18T12:53:08;0.20;99.90
19864;DHT22;10094;48.820;9.226;2022-12-18T13:00:11;0.50;99.90
19864;DHT22;10094;48.820;9.226;2022-12-18T13:07:03;0.60;99.90
19864;DHT22;10094;48.820;9.226;2022-12-18T13:13:55;0.80;99.90
19864;DHT22;10094;48.820;9.226;2022-12-18T13:21:30;0.80;99.90
19864;DHT22;10094;48.820;9.226;2022-12-18T13:28:02;1.10;99.90
19864;DHT22;10094;48.820;9.226;2022-12-18T13:34:44;1.20;99.90
19864;DHT22;10094;48.820;9.226;2022-12-18T13:41:27;1.30;99.90
19864;DHT22;10094;48.820;9.226;2022-12-18T13:48:16;1.30;99.90
19864;DHT22;10094;48.820;9.226;2022-12-18T13:55:01;1.10;99.90
19864;DHT22;10094;48.820;9.226;2022-12-18T14:01:45;1.10;99.90
19864;DHT22;10094;48.820;9.226;2022-12-18T14:08:38;1.20;99.90
19864;DHT22;10094;48.820;9.226;2022-12-18T14:22:21;1.10;99.90
19864;DHT22;10094;48.820;9.226;2022-12-18T14:29:27;0.70;99.90
19864;DHT22;10094;48.820;9.226;2022-12-18T14:36:19;0.40;99.90
19864;DHT22;10094;48.820;9.226;2022-12-18T14:43:02;0.00;99.90
19864;DHT22;10094;48.820;9.226;2022-12-18T14:49:44;0.10;99.90
19864;DHT22;10094;48.820;9.226;2022-12-18T14:56:29;-0.10;99.90
19864;DHT22;10094;48.820;9.226;2022-12-18T15:03:18;0.10;99.90
19864;DHT22;10094;48.820;9.226;2022-12-18T15:10:17;-0.30;99.90
19864;DHT22;10094;48.820;9.226;2022-12-18T15:17:02;-0.20;99.90
19864;DHT22;10094;48.820;9.226;2022-12-18T15:23:48;-0.70;99.90
19864;DHT22;10094;48.820;9.226;2022-12-18T15:30:30;-0.70;99.90
19864;DHT22;10094;48.820;9.226;2022-12-18T15:37:13;-0.70;99.90
19864;DHT22;10094;48.820;9.226;2022-12-18T15:43:56;-0.10;99.90
19864;DHT22;10094;48.820;9.226;2022-12-18T15:50:38;-1.00;99.90
19864;DHT22;10094;48.820;9.226;2022-12-18T15:57:21;-0.20;99.90
19864;DHT22;10094;48.820;9.226;2022-12-18T16:04:06;-0.90;99.90
19864;DHT22;10094;48.820;9.226;2022-12-18T16:10:51;-1.20;99.90
19864;DHT22;10094;48.820;9.226;2022-12-18T16:17:36;-1.40;99.90
19864;DHT22;10094;48.820;9.226;2022-12-18T16:24:21;-1.10;99.90
19864;DHT22;10094;48.820;9.226;2022-12-18T16:31:04;-1.50;99.90
19864;DHT22;10094;48.820;9.226;2022-12-18T16:37:47;-1.20;99.90
19864;DHT22;10094;48.820;9.226;2022-12-18T16:44:29;-0.10;99.90
19864;DHT22;10094;48.820;9.226;2022-12-18T16:51:13;-1.50;99.90
19864;DHT22;10094;48.820;9.226;2022-12-18T16:57:58;-1.10;99.90
19864;DHT22;10094;48.820;9.226;2022-12-18T17:04:41;-1.50;99.90
19864;DHT22;10094;48.820;9.226;2022-12-18T17:11:24;-1.70;99.90
19864;DHT22;10094;48.820;9.226;2022-12-18T17:18:11;-1.30;99.90
19864;DHT22;10094;48.820;9.226;2022-12-18T17:24:54;-1.50;99.90
19864;DHT22;10094;48.820;9.226;2022-12-18T17:31:37;-1.30;99.90
19864;DHT22;10094;48.820;9.226;2022-12-18T17:38:20;-1.60;99.90
19864;DHT22;10094;48.820;9.226;2022-12-18T17:45:02;-1.60;99.90
19864;DHT22;10094;48.820;9.226;2022-12-18T17:52:06;-1.40;99.90
19864;DHT22;10094;48.820;9.226;2022-12-18T17:58:57;-1.70;99.90
19864;DHT22;10094;48.820;9.226;2022-12-18T18:05:40;-1.40;99.90
19864;DHT22;10094;48.820;9.226;2022-12-18T18:12:22;-1.40;99.90
19864;DHT22;10094;48.820;9.226;2022-12-18T18:19:24;-1.20;99.90
19864;DHT22;10094;48.820;9.226;2022-12-18T18:26:07;-1.30;99.90
19864;DHT22;10094;48.820;9.226;2022-12-18T18:32:50;-1.10;99.90
19864;DHT22;10094;48.820;9.226;2022-12-18T18:39:35;-0.90;99.90
19864;DHT22;10094;48.820;9.226;2022-12-18T18:46:17;-1.20;99.90
19864;DHT22;10094;48.820;9.226;2022-12-18T18:53:00;-1.20;99.90
19864;DHT22;10094;48.820;9.226;2022-12-18T18:59:42;-1.10;99.90
19864;DHT22;10094;48.820;9.226;2022-12-18T19:06:26;-0.50;99.90
19864;DHT22;10094;48.820;9.226;2022-12-18T19:13:13;-1.30;99.90
19864;DHT22;10094;48.820;9.226;2022-12-18T19:20:22;-1.50;99.90
19864;DHT22;10094;48.820;9.226;2022-12-18T19:27:06;3.00;99.90
19864;DHT22;10094;48.820;9.226;2022-12-18T19:33:49;-1.60;99.90
19864;DHT22;10094;48.820;9.226;2022-12-18T19:40:31;-1.90;99.90
19864;DHT22;10094;48.820;9.226;2022-12-18T19:47:15;-1.50;99.90
19864;DHT22;10094;48.820;9.226;2022-12-18T19:53:58;-1.80;99.90
19864;DHT22;10094;48.820;9.226;2022-12-18T20:00:43;-0.90;99.90
19864;DHT22;10094;48.820;9.226;2022-12-18T20:07:26;-1.30;99.90
19864;DHT22;10094;48.820;9.226;2022-12-18T20:14:09;-1.40;99.90
19864;DHT22;10094;48.820;9.226;2022-12-18T20:20:58;-1.20;99.90
19864;DHT22;10094;48.820;9.226;2022-12-18T20:27:42;-1.40;99.90
19864;DHT22;10094;48.820;9.226;2022-12-18T20:34:24;-1.30;99.90
19864;DHT22;10094;48.820;9.226;2022-12-18T20:41:09;-1.20;99.90
19864;DHT22;10094;48.820;9.226;2022-12-18T20:47:55;-1.30;99.90
19864;DHT22;10094;48.820;9.226;2022-12-18T20:54:57;-1.10;99.90
19864;DHT22;10094;48.820;9.226;2022-12-18T21:01:44;-1.20;99.90
19864;DHT22;10094;48.820;9.226;2022-12-18T21:08:31;-1.10;99.90
19864;DHT22;10094;48.820;9.226;2022-12-18T21:15:14;-1.20;99.90
19864;DHT22;10094;48.820;9.226;2022-12-18T21:21:57;-1.00;99.90
19864;DHT22;10094;48.820;9.226;2022-12-18T21:28:39;0.00;99.90
19864;DHT22;10094;48.820;9.226;2022-12-18T21:35:22;-1.50;99.90
19864;DHT22;10094;48.820;9.226;2022-12-18T21:42:07;-1.20;99.90
19864;DHT22;10094;48.820;9.226;2022-12-18T21:49:11;-1.00;99.90
19864;DHT22;10094;48.820;9.226;2022-12-18T21:55:59;-1.00;99.90
19864;DHT22;10094;48.820;9.226;2022-12-18T22:02:41;-0.70;99.90
19864;DHT22;10094;48.820;9.226;2022-12-18T22:09:24;-0.90;99.90
19864;DHT22;10094;48.820;9.226;2022-12-18T22:16:07;-0.80;99.90
19864;DHT22;10094;48.820;9.226;2022-12-18T22:22:49;-0.70;99.90
19864;DHT22;10094;48.820;9.226;2022-12-18T22:29:32;-0.70;99.90
19864;DHT22;10094;48.820;9.226;2022-12-18T22:36:38;-0.70;99.90
19864;DHT22;10094;48.820;9.226;2022-12-18T22:43:21;-0.60;99.90
19864;DHT22;10094;48.820;9.226;2022-12-18T22:50:04;-0.50;99.90
19864;DHT22;10094;48.820;9.226;2022-12-18T22:56:46;-0.40;99.90
19864;DHT22;10094;48.820;9.226;2022-12-18T23:03:34;-0.40;99.90
19864;DHT22;10094;48.820;9.226;2022-12-18T23:10:16;0.20;99.90
19864;DHT22;10094;48.820;9.226;2022-12-18T23:16:59;-0.10;99.90
19864;DHT22;10094;48.820;9.226;2022-12-18T23:23:41;0.00;99.90
19864;DHT22;10094;48.820;9.226;2022-12-18T23:30:24;0.30;99.90
19864;DHT22;10094;48.820;9.226;2022-12-18T23:37:06;0.00;99.90
19864;DHT22;10094;48.820;9.226;2022-12-18T23:43:49;0.40;99.90
19864;DHT22;10094;48.820;9.226;2022-12-18T23:50:34;0.30;99.90
19864;DHT22;10094;48.820;9.226;2022-12-18T23:57:20;0.60;99.90
